Time;durP1;ratioP1;P1;durP2;ratioP2;P2;SDS_P1;SDS_P2;PMS_P1;PMS_P2;Temp;Humidity;BMP_temperature;BMP_pressure;BME280_temperature;BME280_humidity;BME280_pressure;Samples;Min_cycle;Max_cycle;Signal;HPM_P1;HPM_P2
2024/02/20 00:00:08;;;;;;;7.950002;5;;;;;;;9.88;86.00488;96100.46;;;;
2024/02/20 00:01:10;;;;;;;7.950002;5;;;;;;;9.88;86.00488;96100.46;;;;
2024/02/20 00:02:11;;;;;;;7.950002;5;;;;;;;9.88;86.00488;96100.46;;;;
2024/02/20 00:03:12;;;;;;;7.950002;5;;;;;;;9.88;86.00488;96100.46;;;;
2024/02/20 00:04:16;;;;;;;7.950002;5;;;;;;;9.88;86.00488;96100.46;;;;
2024/02/20 00:05:17;;;;;;;7.950002;5;;;;;;;9.88;86.00488;96100.46;;;;
2024/02/20 00:06:18;;;;;;;7.95;5.35;;;;;;;9.82;85.3623;96077.84;;;;
2024/02/20 00:07:19;;;;;;;7.95;5.35;;;;;;;9.82;85.3623;96077.84;;;;
2024/02/20 00:08:20;;;;;;;7.95;5.35;;;;;;;9.82;85.3623;96077.84;;;;
2024/02/20 00:09:21;;;;;;;7.95;5.35;;;;;;;9.82;85.3623;96077.84;;;;
2024/02/20 00:10:21;;;;;;;7.95;5.35;;;;;;;9.82;85.3623;96077.84;;;;
2024/02/20 00:11:22;;;;;;;7.95;5.35;;;;;;;9.82;85.3623;96077.84;;;;
2024/02/20 00:12:22;;;;;;;7.95;5.35;;;;;;;9.82;85.3623;96077.84;;;;
2024/02/20 00:13:23;;;;;;;7.95;5.35;;;;;;;9.82;85.3623;96077.84;;;;
2024/02/20 00:14:23;;;;;;;7.95;5.35;;;;;;;9.82;85.3623;96077.84;;;;
2024/02/20 00:15:23;;;;;;;7.95;5.35;;;;;;;9.82;85.3623;96077.84;;;;
2024/02/20 00:16:24;;;;;;;8.550001;5.6;;;;;;;9.85;85.17285;96071.37;;;;
2024/02/20 00:17:25;;;;;;;8.550001;5.6;;;;;;;9.85;85.17285;96071.37;;;;
2024/02/20 00:18:25;;;;;;;8.550001;5.6;;;;;;;9.85;85.17285;96071.37;;;;
2024/02/20 00:19:26;;;;;;;8.550001;5.6;;;;;;;9.85;85.17285;96071.37;;;;
2024/02/20 00:20:26;;;;;;;8.550001;5.6;;;;;;;9.85;85.17285;96071.37;;;;
2024/02/20 00:21:27;;;;;;;8.550001;5.6;;;;;;;9.85;85.17285;96071.37;;;;
2024/02/20 00:22:27;;;;;;;8.550001;5.6;;;;;;;9.85;85.17285;96071.37;;;;
2024/02/20 00:23:27;;;;;;;8.550001;5.6;;;;;;;9.85;85.17285;96071.37;;;;
2024/02/20 00:24:28;;;;;;;8.550001;5.6;;;;;;;9.85;85.17285;96071.37;;;;
2024/02/20 00:25:29;;;;;;;8.550001;5.6;;;;;;;9.85;85.17285;96071.37;;;;
2024/02/20 00:26:29;;;;;;;8.550001;5.6;;;;;;;9.85;85.17285;96071.37;;;;
2024/02/20 00:27:31;;;;;;;8.65;6;;;;;;;9.83;85.28711;96064.14;;;;
2024/02/20 00:28:31;;;;;;;8.65;6;;;;;;;9.83;85.28711;96064.14;;;;
2024/02/20 00:29:32;;;;;;;8.65;6;;;;;;;9.83;85.28711;96064.14;;;;
2024/02/20 00:30:32;;;;;;;8.65;6;;;;;;;9.83;85.28711;96064.14;;;;
2024/02/20 00:31:34;;;;;;;8.65;6;;;;;;;9.83;85.28711;96064.14;;;;
2024/02/20 00:32:34;;;;;;;8.65;6;;;;;;;9.83;85.28711;96064.14;;;;
2024/02/20 00:33:35;;;;;;;8.65;6;;;;;;;9.83;85.28711;96064.14;;;;
2024/02/20 00:34:35;;;;;;;8.65;6;;;;;;;9.83;85.28711;96064.14;;;;
2024/02/20 00:35:36;;;;;;;8.65;6;;;;;;;9.83;85.28711;96064.14;;;;
2024/02/20 00:36:36;;;;;;;8.65;6;;;;;;;9.83;85.28711;96064.14;;;;
2024/02/20 00:37:37;;;;;;;8.65;6;;;;;;;9.83;85.28711;96064.14;;;;
2024/02/20 00:38:37;;;;;;;7.1;5.3;;;;;;;9.78;85.58887;96068.75;;;;
2024/02/20 00:39:38;;;;;;;7.1;5.3;;;;;;;9.78;85.58887;96068.75;;;;
2024/02/20 00:40:39;;;;;;;7.1;5.3;;;;;;;9.78;85.58887;96068.75;;;;
2024/02/20 00:41:40;;;;;;;7.1;5.3;;;;;;;9.78;85.58887;96068.75;;;;
2024/02/20 00:42:40;;;;;;;7.1;5.3;;;;;;;9.78;85.58887;96068.75;;;;
2024/02/20 00:43:41;;;;;;;7.1;5.3;;;;;;;9.78;85.58887;96068.75;;;;
2024/02/20 00:44:41;;;;;;;7.1;5.3;;;;;;;9.78;85.58887;96068.75;;;;
2024/02/20 00:45:44;;;;;;;7.1;5.3;;;;;;;9.78;85.58887;96068.75;;;;
2024/02/20 00:46:45;;;;;;;7.1;5.3;;;;;;;9.78;85.58887;96068.75;;;;
2024/02/20 00:47:45;;;;;;;7.1;5.3;;;;;;;9.78;85.58887;96068.75;;;;
2024/02/20 00:48:46;;;;;;;8.000002;5.349999;;;;;;;9.88;85.21094;96074.13;;;;
2024/02/20 00:49:47;;;;;;;8.000002;5.349999;;;;;;;9.88;85.21094;96074.13;;;;
2024/02/20 00:50:47;;;;;;;8.000002;5.349999;;;;;;;9.88;85.21094;96074.13;;;;
2024/02/20 00:51:48;;;;;;;8.000002;5.349999;;;;;;;9.88;85.21094;96074.13;;;;
2024/02/20 00:52:49;;;;;;;8.000002;5.349999;;;;;;;9.88;85.21094;96074.13;;;;
2024/02/20 00:53:49;;;;;;;8.000002;5.349999;;;;;;;9.88;85.21094;96074.13;;;;
2024/02/20 00:54:50;;;;;;;8.000002;5.349999;;;;;;;9.88;85.21094;96074.13;;;;
2024/02/20 00:55:50;;;;;;;8.000002;5.349999;;;;;;;9.88;85.21094;96074.13;;;;
2024/02/20 00:56:51;;;;;;;8.000002;5.349999;;;;;;;9.88;85.21094;96074.13;;;;
2024/02/20 00:57:55;;;;;;;8.000002;5.349999;;;;;;;9.88;85.21094;96074.13;;;;
2024/02/20 00:58:55;;;;;;;8.000002;5.349999;;;;;;;9.88;85.21094;96074.13;;;;
2024/02/20 00:59:56;;;;;;;9.1;5.699999;;;;;;;9.79;85.16211;96084.92;;;;
2024/02/20 01:00:56;;;;;;;9.1;5.699999;;;;;;;9.79;85.16211;96084.92;;;;
2024/02/20 01:01:57;;;;;;;9.1;5.699999;;;;;;;9.79;85.16211;96084.92;;;;
2024/02/20 01:02:58;;;;;;;9.1;5.699999;;;;;;;9.79;85.16211;96084.92;;;;
2024/02/20 01:03:59;;;;;;;9.1;5.699999;;;;;;;9.79;85.16211;96084.92;;;;
2024/02/20 01:04:59;;;;;;;9.1;5.699999;;;;;;;9.79;85.16211;96084.92;;;;
2024/02/20 01:06:00;;;;;;;9.1;5.699999;;;;;;;9.79;85.16211;96084.92;;;;
2024/02/20 01:07:01;;;;;;;9.1;5.699999;;;;;;;9.79;85.16211;96084.92;;;;
2024/02/20 01:08:02;;;;;;;9.1;5.699999;;;;;;;9.79;85.16211;96084.92;;;;
2024/02/20 01:09:03;;;;;;;9.1;5.699999;;;;;;;9.79;85.16211;96084.92;;;;
2024/02/20 01:10:04;;;;;;;10.8;5.500001;;;;;;;9.67;84.9668;96082.45;;;;
2024/02/20 01:11:05;;;;;;;10.8;5.500001;;;;;;;9.67;84.9668;96082.45;;;;
2024/02/20 01:12:06;;;;;;;10.8;5.500001;;;;;;;9.67;84.9668;96082.45;;;;
2024/02/20 01:13:08;;;;;;;10.8;5.500001;;;;;;;9.67;84.9668;96082.45;;;;
2024/02/20 01:14:08;;;;;;;10.8;5.500001;;;;;;;9.67;84.9668;96082.45;;;;
2024/02/20 01:15:09;;;;;;;10.8;5.500001;;;;;;;9.67;84.9668;96082.45;;;;
2024/02/20 01:16:10;;;;;;;10.8;5.500001;;;;;;;9.67;84.9668;96082.45;;;;
2024/02/20 01:17:10;;;;;;;10.8;5.500001;;;;;;;9.67;84.9668;96082.45;;;;
2024/02/20 01:18:10;;;;;;;10.8;5.500001;;;;;;;9.67;84.9668;96082.45;;;;
2024/02/20 01:19:11;;;;;;;10.8;5.500001;;;;;;;9.67;84.9668;96082.45;;;;
2024/02/20 01:20:12;;;;;;;10.8;5.500001;;;;;;;9.67;84.9668;96082.45;;;;
2024/02/20 01:21:12;;;;;;;7.450001;4.5;;;;;;;9.52;84.92773;96082.98;;;;
2024/02/20 01:22:13;;;;;;;7.450001;4.5;;;;;;;9.52;84.92773;96082.98;;;;
2024/02/20 01:23:13;;;;;;;7.450001;4.5;;;;;;;9.52;84.92773;96082.98;;;;
2024/02/20 01:24:14;;;;;;;7.450001;4.5;;;;;;;9.52;84.92773;96082.98;;;;
2024/02/20 01:25:14;;;;;;;7.450001;4.5;;;;;;;9.52;84.92773;96082.98;;;;
2024/02/20 01:26:15;;;;;;;7.450001;4.5;;;;;;;9.52;84.92773;96082.98;;;;
2024/02/20 01:27:15;;;;;;;7.450001;4.5;;;;;;;9.52;84.92773;96082.98;;;;
2024/02/20 01:28:16;;;;;;;7.450001;4.5;;;;;;;9.52;84.92773;96082.98;;;;
2024/02/20 01:29:21;;;;;;;7.450001;4.5;;;;;;;9.52;84.92773;96082.98;;;;
2024/02/20 01:30:21;;;;;;;7.450001;4.5;;;;;;;9.52;84.92773;96082.98;;;;
2024/02/20 01:31:22;;;;;;;8.500001;4.1;;;;;;;9.23;86.21777;96074.63;;;;
2024/02/20 01:32:23;;;;;;;8.500001;4.1;;;;;;;9.23;86.21777;96074.63;;;;
2024/02/20 01:33:23;;;;;;;8.500001;4.1;;;;;;;9.23;86.21777;96074.63;;;;
2024/02/20 01:34:24;;;;;;;8.500001;4.1;;;;;;;9.23;86.21777;96074.63;;;;
2024/02/20 01:35:24;;;;;;;8.500001;4.1;;;;;;;9.23;86.21777;96074.63;;;;
2024/02/20 01:36:25;;;;;;;8.500001;4.1;;;;;;;9.23;86.21777;96074.63;;;;
2024/02/20 01:37:26;;;;;;;8.500001;4.1;;;;;;;9.23;86.21777;96074.63;;;;
2024/02/20 01:38:26;;;;;;;8.500001;4.1;;;;;;;9.23;86.21777;96074.63;;;;
2024/02/20 01:39:27;;;;;;;8.500001;4.1;;;;;;;9.23;86.21777;96074.63;;;;
2024/02/20 01:40:27;;;;;;;8.500001;4.1;;;;;;;9.23;86.21777;96074.63;;;;
2024/02/20 01:41:28;;;;;;;8.500001;4.1;;;;;;;9.23;86.21777;96074.63;;;;
2024/02/20 01:42:28;;;;;;;5.55;3.55;;;;;;;9.12;86.37695;96066.77;;;;
2024/02/20 01:43:29;;;;;;;5.55;3.55;;;;;;;9.12;86.37695;96066.77;;;;
2024/02/20 01:44:31;;;;;;;5.55;3.55;;;;;;;9.12;86.37695;96066.77;;;;
2024/02/20 01:45:33;;;;;;;5.55;3.55;;;;;;;9.12;86.37695;96066.77;;;;
2024/02/20 01:46:34;;;;;;;5.55;3.55;;;;;;;9.12;86.37695;96066.77;;;;
2024/02/20 01:47:34;;;;;;;5.55;3.55;;;;;;;9.12;86.37695;96066.77;;;;
2024/02/20 01:48:35;;;;;;;5.55;3.55;;;;;;;9.12;86.37695;96066.77;;;;
2024/02/20 01:49:36;;;;;;;5.55;3.55;;;;;;;9.12;86.37695;96066.77;;;;
2024/02/20 01:50:37;;;;;;;5.55;3.55;;;;;;;9.12;86.37695;96066.77;;;;
2024/02/20 01:51:37;;;;;;;5.55;3.55;;;;;;;9.12;86.37695;96066.77;;;;
2024/02/20 01:52:38;;;;;;;3.3;2.45;;;;;;;9.05;86.18262;96055.72;;;;
2024/02/20 01:53:39;;;;;;;3.3;2.45;;;;;;;9.05;86.18262;96055.72;;;;
2024/02/20 01:54:40;;;;;;;3.3;2.45;;;;;;;9.05;86.18262;96055.72;;;;
2024/02/20 01:55:41;;;;;;;3.3;2.45;;;;;;;9.05;86.18262;96055.72;;;;
2024/02/20 01:56:41;;;;;;;3.3;2.45;;;;;;;9.05;86.18262;96055.72;;;;
2024/02/20 01:57:43;;;;;;;3.3;2.45;;;;;;;9.05;86.18262;96055.72;;;;
2024/02/20 01:58:44;;;;;;;3.3;2.45;;;;;;;9.05;86.18262;96055.72;;;;
2024/02/20 01:59:45;;;;;;;3.3;2.45;;;;;;;9.05;86.18262;96055.72;;;;
2024/02/20 02:00:46;;;;;;;3.3;2.45;;;;;;;9.05;86.18262;96055.72;;;;
2024/02/20 02:01:46;;;;;;;3.3;2.45;;;;;;;9.05;86.18262;96055.72;;;;
2024/02/20 02:02:47;;;;;;;3.3;2.45;;;;;;;9.05;86.18262;96055.72;;;;
2024/02/20 02:03:48;;;;;;;2.5;2.299999;;;;;;;8.9;85.92871;96041.35;;;;
2024/02/20 02:04:48;;;;;;;2.5;2.299999;;;;;;;8.9;85.92871;96041.35;;;;
2024/02/20 02:05:49;;;;;;;2.5;2.299999;;;;;;;8.9;85.92871;96041.35;;;;
2024/02/20 02:06:50;;;;;;;2.5;2.299999;;;;;;;8.9;85.92871;96041.35;;;;
2024/02/20 02:07:50;;;;;;;2.5;2.299999;;;;;;;8.9;85.92871;96041.35;;;;
2024/02/20 02:08:51;;;;;;;2.5;2.299999;;;;;;;8.9;85.92871;96041.35;;;;
2024/02/20 02:09:51;;;;;;;2.5;2.299999;;;;;;;8.9;85.92871;96041.35;;;;
2024/02/20 02:10:52;;;;;;;2.5;2.299999;;;;;;;8.9;85.92871;96041.35;;;;
2024/02/20 02:11:52;;;;;;;2.5;2.299999;;;;;;;8.9;85.92871;96041.35;;;;
2024/02/20 02:12:54;;;;;;;2.5;2.299999;;;;;;;8.9;85.92871;96041.35;;;;
2024/02/20 02:13:54;;;;;;;2.5;2.299999;;;;;;;8.9;85.92871;96041.35;;;;
2024/02/20 02:14:55;;;;;;;3.1;2.3;;;;;;;8.71;86.36133;96050.19;;;;
2024/02/20 02:15:55;;;;;;;3.1;2.3;;;;;;;8.71;86.36133;96050.19;;;;
2024/02/20 02:16:56;;;;;;;3.1;2.3;;;;;;;8.71;86.36133;96050.19;;;;
2024/02/20 02:17:56;;;;;;;3.1;2.3;;;;;;;8.71;86.36133;96050.19;;;;
2024/02/20 02:18:57;;;;;;;3.1;2.3;;;;;;;8.71;86.36133;96050.19;;;;
2024/02/20 02:19:57;;;;;;;3.1;2.3;;;;;;;8.71;86.36133;96050.19;;;;
2024/02/20 02:20:58;;;;;;;3.1;2.3;;;;;;;8.71;86.36133;96050.19;;;;
2024/02/20 02:21:58;;;;;;;3.1;2.3;;;;;;;8.71;86.36133;96050.19;;;;
2024/02/20 02:22:59;;;;;;;3.1;2.3;;;;;;;8.71;86.36133;96050.19;;;;
2024/02/20 02:24:00;;;;;;;3.1;2.3;;;;;;;8.71;86.36133;96050.19;;;;
2024/02/20 02:25:00;;;;;;;3.55;2.9;;;;;;;8.58;86.71973;96046.45;;;;
2024/02/20 02:26:01;;;;;;;3.55;2.9;;;;;;;8.58;86.71973;96046.45;;;;
2024/02/20 02:27:06;;;;;;;3.55;2.9;;;;;;;8.58;86.71973;96046.45;;;;
2024/02/20 02:28:07;;;;;;;3.55;2.9;;;;;;;8.58;86.71973;96046.45;;;;
2024/02/20 02:29:07;;;;;;;3.55;2.9;;;;;;;8.58;86.71973;96046.45;;;;
2024/02/20 02:30:09;;;;;;;3.55;2.9;;;;;;;8.58;86.71973;96046.45;;;;
2024/02/20 02:31:10;;;;;;;3.55;2.9;;;;;;;8.58;86.71973;96046.45;;;;
2024/02/20 02:32:11;;;;;;;3.55;2.9;;;;;;;8.58;86.71973;96046.45;;;;
2024/02/20 02:33:11;;;;;;;3.55;2.9;;;;;;;8.58;86.71973;96046.45;;;;
2024/02/20 02:34:12;;;;;;;3.55;2.9;;;;;;;8.58;86.71973;96046.45;;;;
2024/02/20 02:35:13;;;;;;;3.55;2.9;;;;;;;8.58;86.71973;96046.45;;;;
2024/02/20 02:36:14;;;;;;;3.3;2.8;;;;;;;8.59;86.82617;96042.02;;;;
2024/02/20 02:37:14;;;;;;;3.3;2.8;;;;;;;8.59;86.82617;96042.02;;;;
2024/02/20 02:38:15;;;;;;;3.3;2.8;;;;;;;8.59;86.82617;96042.02;;;;
2024/02/20 02:39:16;;;;;;;3.3;2.8;;;;;;;8.59;86.82617;96042.02;;;;
2024/02/20 02:40:17;;;;;;;3.3;2.8;;;;;;;8.59;86.82617;96042.02;;;;
2024/02/20 02:41:18;;;;;;;3.3;2.8;;;;;;;8.59;86.82617;96042.02;;;;
2024/02/20 02:42:19;;;;;;;3.3;2.8;;;;;;;8.59;86.82617;96042.02;;;;
2024/02/20 02:43:20;;;;;;;3.3;2.8;;;;;;;8.59;86.82617;96042.02;;;;
2024/02/20 02:44:21;;;;;;;3.3;2.8;;;;;;;8.59;86.82617;96042.02;;;;
2024/02/20 02:45:21;;;;;;;3.3;2.8;;;;;;;8.59;86.82617;96042.02;;;;
2024/02/20 02:46:22;;;;;;;2.9;2.55;;;;;;;8.58;86.66602;96052.14;;;;
2024/02/20 02:47:22;;;;;;;2.9;2.55;;;;;;;8.58;86.66602;96052.14;;;;
2024/02/20 02:48:22;;;;;;;2.9;2.55;;;;;;;8.58;86.66602;96052.14;;;;
2024/02/20 02:49:23;;;;;;;2.9;2.55;;;;;;;8.58;86.66602;96052.14;;;;
2024/02/20 02:50:24;;;;;;;2.9;2.55;;;;;;;8.58;86.66602;96052.14;;;;
2024/02/20 02:51:24;;;;;;;2.9;2.55;;;;;;;8.58;86.66602;96052.14;;;;
2024/02/20 02:52:24;;;;;;;2.9;2.55;;;;;;;8.58;86.66602;96052.14;;;;
2024/02/20 02:53:25;;;;;;;2.9;2.55;;;;;;;8.58;86.66602;96052.14;;;;
2024/02/20 02:54:25;;;;;;;2.9;2.55;;;;;;;8.58;86.66602;96052.14;;;;
2024/02/20 02:55:27;;;;;;;2.9;2.55;;;;;;;8.58;86.66602;96052.14;;;;
2024/02/20 02:56:28;;;;;;;2.9;2.55;;;;;;;8.58;86.66602;96052.14;;;;
2024/02/20 02:57:29;;;;;;;3.65;2.6;;;;;;;8.41;86.83496;96055.13;;;;
2024/02/20 02:58:30;;;;;;;3.65;2.6;;;;;;;8.41;86.83496;96055.13;;;;
2024/02/20 02:59:30;;;;;;;3.65;2.6;;;;;;;8.41;86.83496;96055.13;;;;
2024/02/20 03:00:30;;;;;;;3.65;2.6;;;;;;;8.41;86.83496;96055.13;;;;
2024/02/20 03:01:31;;;;;;;3.65;2.6;;;;;;;8.41;86.83496;96055.13;;;;
2024/02/20 03:02:31;;;;;;;3.65;2.6;;;;;;;8.41;86.83496;96055.13;;;;
2024/02/20 03:03:32;;;;;;;3.65;2.6;;;;;;;8.41;86.83496;96055.13;;;;
2024/02/20 03:04:32;;;;;;;3.65;2.6;;;;;;;8.41;86.83496;96055.13;;;;
2024/02/20 03:05:36;;;;;;;3.65;2.6;;;;;;;8.41;86.83496;96055.13;;;;
2024/02/20 03:06:37;;;;;;;3.65;2.6;;;;;;;8.41;86.83496;96055.13;;;;
2024/02/20 03:07:39;;;;;;;3.65;2.6;;;;;;;8.41;86.83496;96055.13;;;;
2024/02/20 03:08:44;;;;;;;3.65;2.6;;;;;;;8.41;86.83496;96055.13;;;;
2024/02/20 03:09:45;;;;;;;3.65;2.6;;;;;;;8.41;86.83496;96055.13;;;;
2024/02/20 03:10:45;;;;;;;3.65;2.6;;;;;;;8.41;86.83496;96055.13;;;;
2024/02/20 03:11:46;;;;;;;3.65;2.6;;;;;;;8.41;86.83496;96055.13;;;;
2024/02/20 03:12:47;;;;;;;3.65;2.6;;;;;;;8.41;86.83496;96055.13;;;;
2024/02/20 03:13:47;;;;;;;3.65;2.6;;;;;;;8.41;86.83496;96055.13;;;;
2024/02/20 03:14:48;;;;;;;3.65;2.6;;;;;;;8.41;86.83496;96055.13;;;;
2024/02/20 03:15:49;;;;;;;3.65;2.6;;;;;;;8.41;86.83496;96055.13;;;;
2024/02/20 03:16:50;;;;;;;3.65;2.6;;;;;;;8.41;86.83496;96055.13;;;;
2024/02/20 03:17:50;;;;;;;3.65;2.6;;;;;;;8.41;86.83496;96055.13;;;;
2024/02/20 03:18:51;;;;;;;3.65;2.7;;;;;;;8.43;87.2334;96054.83;;;;
2024/02/20 03:19:52;;;;;;;3.65;2.7;;;;;;;8.43;87.2334;96054.83;;;;
2024/02/20 03:20:52;;;;;;;3.65;2.7;;;;;;;8.43;87.2334;96054.83;;;;
2024/02/20 03:21:53;;;;;;;3.65;2.7;;;;;;;8.43;87.2334;96054.83;;;;
2024/02/20 03:22:53;;;;;;;3.65;2.7;;;;;;;8.43;87.2334;96054.83;;;;
2024/02/20 03:23:54;;;;;;;3.65;2.7;;;;;;;8.43;87.2334;96054.83;;;;
2024/02/20 03:24:54;;;;;;;3.65;2.7;;;;;;;8.43;87.2334;96054.83;;;;
2024/02/20 03:25:55;;;;;;;3.65;2.7;;;;;;;8.43;87.2334;96054.83;;;;
2024/02/20 03:26:55;;;;;;;3.65;2.7;;;;;;;8.43;87.2334;96054.83;;;;
2024/02/20 03:27:56;;;;;;;3.65;2.7;;;;;;;8.43;87.2334;96054.83;;;;
2024/02/20 03:28:56;;;;;;;3.9;3.15;;;;;;;8.45;87.09863;96065.6;;;;
2024/02/20 03:29:56;;;;;;;3.9;3.15;;;;;;;8.45;87.09863;96065.6;;;;
2024/02/20 03:30:57;;;;;;;3.9;3.15;;;;;;;8.45;87.09863;96065.6;;;;
2024/02/20 03:31:59;;;;;;;3.9;3.15;;;;;;;8.45;87.09863;96065.6;;;;
2024/02/20 03:33:00;;;;;;;3.9;3.15;;;;;;;8.45;87.09863;96065.6;;;;
2024/02/20 03:34:01;;;;;;;3.9;3.15;;;;;;;8.45;87.09863;96065.6;;;;
2024/02/20 03:35:02;;;;;;;3.9;3.15;;;;;;;8.45;87.09863;96065.6;;;;
2024/02/20 03:36:04;;;;;;;3.9;3.15;;;;;;;8.45;87.09863;96065.6;;;;
2024/02/20 03:37:06;;;;;;;3.9;3.15;;;;;;;8.45;87.09863;96065.6;;;;
2024/02/20 03:38:06;;;;;;;3.9;3.15;;;;;;;8.45;87.09863;96065.6;;;;
2024/02/20 03:39:07;;;;;;;3.9;3.15;;;;;;;8.45;87.09863;96065.6;;;;
2024/02/20 03:40:07;;;;;;;5.3;3.8;;;;;;;8.42;87.2207;96075.6;;;;
2024/02/20 03:41:09;;;;;;;5.3;3.8;;;;;;;8.42;87.2207;96075.6;;;;
2024/02/20 03:42:10;;;;;;;5.3;3.8;;;;;;;8.42;87.2207;96075.6;;;;
2024/02/20 03:43:10;;;;;;;5.3;3.8;;;;;;;8.42;87.2207;96075.6;;;;
2024/02/20 03:44:10;;;;;;;5.3;3.8;;;;;;;8.42;87.2207;96075.6;;;;
2024/02/20 03:45:11;;;;;;;5.3;3.8;;;;;;;8.42;87.2207;96075.6;;;;
2024/02/20 03:46:11;;;;;;;5.3;3.8;;;;;;;8.42;87.2207;96075.6;;;;
2024/02/20 03:47:12;;;;;;;5.3;3.8;;;;;;;8.42;87.2207;96075.6;;;;
2024/02/20 03:48:12;;;;;;;5.3;3.8;;;;;;;8.42;87.2207;96075.6;;;;
2024/02/20 03:49:13;;;;;;;5.3;3.8;;;;;;;8.42;87.2207;96075.6;;;;
2024/02/20 03:50:13;;;;;;;6.55;4.099999;;;;;;;8.43;87.15723;96090.92;;;;
2024/02/20 03:51:15;;;;;;;6.55;4.099999;;;;;;;8.43;87.15723;96090.92;;;;
2024/02/20 03:52:15;;;;;;;6.55;4.099999;;;;;;;8.43;87.15723;96090.92;;;;
2024/02/20 03:53:15;;;;;;;6.55;4.099999;;;;;;;8.43;87.15723;96090.92;;;;
2024/02/20 03:54:17;;;;;;;6.55;4.099999;;;;;;;8.43;87.15723;96090.92;;;;
2024/02/20 03:55:18;;;;;;;6.55;4.099999;;;;;;;8.43;87.15723;96090.92;;;;
2024/02/20 03:56:18;;;;;;;6.55;4.099999;;;;;;;8.43;87.15723;96090.92;;;;
2024/02/20 03:57:18;;;;;;;6.55;4.099999;;;;;;;8.43;87.15723;96090.92;;;;
2024/02/20 03:58:19;;;;;;;6.55;4.099999;;;;;;;8.43;87.15723;96090.92;;;;
2024/02/20 03:59:20;;;;;;;6.55;4.099999;;;;;;;8.43;87.15723;96090.92;;;;
2024/02/20 04:00:24;;;;;;;6.55;4.099999;;;;;;;8.43;87.15723;96090.92;;;;
2024/02/20 04:01:24;;;;;;;6.299999;4.299999;;;;;;;8.5;86.82227;96097.91;;;;
2024/02/20 04:02:26;;;;;;;6.299999;4.299999;;;;;;;8.5;86.82227;96097.91;;;;
2024/02/20 04:03:27;;;;;;;6.299999;4.299999;;;;;;;8.5;86.82227;96097.91;;;;
2024/02/20 04:04:29;;;;;;;6.299999;4.299999;;;;;;;8.5;86.82227;96097.91;;;;
2024/02/20 04:05:30;;;;;;;6.299999;4.299999;;;;;;;8.5;86.82227;96097.91;;;;
2024/02/20 04:06:31;;;;;;;6.299999;4.299999;;;;;;;8.5;86.82227;96097.91;;;;
2024/02/20 04:07:32;;;;;;;6.299999;4.299999;;;;;;;8.5;86.82227;96097.91;;;;
2024/02/20 04:08:32;;;;;;;6.299999;4.299999;;;;;;;8.5;86.82227;96097.91;;;;
2024/02/20 04:09:33;;;;;;;6.299999;4.299999;;;;;;;8.5;86.82227;96097.91;;;;
2024/02/20 04:10:33;;;;;;;6.299999;4.299999;;;;;;;8.5;86.82227;96097.91;;;;
2024/02/20 04:11:34;;;;;;;9.700001;5.3;;;;;;;8.49;87.11719;96093.66;;;;
2024/02/20 04:12:34;;;;;;;9.700001;5.3;;;;;;;8.49;87.11719;96093.66;;;;
2024/02/20 04:13:35;;;;;;;9.700001;5.3;;;;;;;8.49;87.11719;96093.66;;;;
2024/02/20 04:14:35;;;;;;;9.700001;5.3;;;;;;;8.49;87.11719;96093.66;;;;
2024/02/20 04:15:36;;;;;;;9.700001;5.3;;;;;;;8.49;87.11719;96093.66;;;;
2024/02/20 04:16:36;;;;;;;9.700001;5.3;;;;;;;8.49;87.11719;96093.66;;;;
2024/02/20 04:17:37;;;;;;;9.700001;5.3;;;;;;;8.49;87.11719;96093.66;;;;
2024/02/20 04:18:38;;;;;;;9.700001;5.3;;;;;;;8.49;87.11719;96093.66;;;;
2024/02/20 04:19:39;;;;;;;9.700001;5.3;;;;;;;8.49;87.11719;96093.66;;;;
2024/02/20 04:20:40;;;;;;;9.700001;5.3;;;;;;;8.49;87.11719;96093.66;;;;
2024/02/20 04:21:40;;;;;;;9.700001;5.3;;;;;;;8.49;87.11719;96093.66;;;;
2024/02/20 04:22:41;;;;;;;9.100001;6.1;;;;;;;8.47;86.9209;96102.64;;;;
2024/02/20 04:23:42;;;;;;;9.100001;6.1;;;;;;;8.47;86.9209;96102.64;;;;
2024/02/20 04:24:42;;;;;;;9.100001;6.1;;;;;;;8.47;86.9209;96102.64;;;;
2024/02/20 04:25:43;;;;;;;9.100001;6.1;;;;;;;8.47;86.9209;96102.64;;;;
2024/02/20 04:26:43;;;;;;;9.100001;6.1;;;;;;;8.47;86.9209;96102.64;;;;
2024/02/20 04:27:44;;;;;;;9.100001;6.1;;;;;;;8.47;86.9209;96102.64;;;;
2024/02/20 04:28:45;;;;;;;9.100001;6.1;;;;;;;8.47;86.9209;96102.64;;;;
2024/02/20 04:29:46;;;;;;;9.100001;6.1;;;;;;;8.47;86.9209;96102.64;;;;
2024/02/20 04:30:47;;;;;;;9.100001;6.1;;;;;;;8.47;86.9209;96102.64;;;;
2024/02/20 04:31:47;;;;;;;9.100001;6.1;;;;;;;8.47;86.9209;96102.64;;;;
2024/02/20 04:32:48;;;;;;;9.100001;6.1;;;;;;;8.47;86.9209;96102.64;;;;
2024/02/20 04:33:48;;;;;;;11.5;7.349999;;;;;;;8.57;86.44043;96119.03;;;;
2024/02/20 04:34:49;;;;;;;11.5;7.349999;;;;;;;8.57;86.44043;96119.03;;;;
2024/02/20 04:35:50;;;;;;;11.5;7.349999;;;;;;;8.57;86.44043;96119.03;;;;
2024/02/20 04:36:50;;;;;;;11.5;7.349999;;;;;;;8.57;86.44043;96119.03;;;;
2024/02/20 04:37:51;;;;;;;11.5;7.349999;;;;;;;8.57;86.44043;96119.03;;;;
2024/02/20 04:38:56;;;;;;;11.5;7.349999;;;;;;;8.57;86.44043;96119.03;;;;
2024/02/20 04:39:56;;;;;;;11.5;7.349999;;;;;;;8.57;86.44043;96119.03;;;;
2024/02/20 04:40:57;;;;;;;11.5;7.349999;;;;;;;8.57;86.44043;96119.03;;;;
2024/02/20 04:41:59;;;;;;;11.5;7.349999;;;;;;;8.57;86.44043;96119.03;;;;
2024/02/20 04:43:00;;;;;;;11.5;7.349999;;;;;;;8.57;86.44043;96119.03;;;;
2024/02/20 04:44:00;;;;;;;12.6;7.199999;;;;;;;8.57;86.20605;96127.84;;;;
2024/02/20 04:45:01;;;;;;;12.6;7.199999;;;;;;;8.57;86.20605;96127.84;;;;
2024/02/20 04:46:01;;;;;;;12.6;7.199999;;;;;;;8.57;86.20605;96127.84;;;;
2024/02/20 04:47:03;;;;;;;12.6;7.199999;;;;;;;8.57;86.20605;96127.84;;;;
2024/02/20 04:48:04;;;;;;;12.6;7.199999;;;;;;;8.57;86.20605;96127.84;;;;
2024/02/20 04:49:05;;;;;;;12.6;7.199999;;;;;;;8.57;86.20605;96127.84;;;;
2024/02/20 04:50:06;;;;;;;12.6;7.199999;;;;;;;8.57;86.20605;96127.84;;;;
2024/02/20 04:51:07;;;;;;;12.6;7.199999;;;;;;;8.57;86.20605;96127.84;;;;
2024/02/20 04:52:08;;;;;;;12.6;7.199999;;;;;;;8.57;86.20605;96127.84;;;;
2024/02/20 04:53:09;;;;;;;12.6;7.199999;;;;;;;8.57;86.20605;96127.84;;;;
2024/02/20 04:54:09;;;;;;;12.6;7.199999;;;;;;;8.57;86.20605;96127.84;;;;
2024/02/20 04:55:10;;;;;;;11.95;7.1;;;;;;;8.52;86.09863;96125.81;;;;
2024/02/20 04:56:10;;;;;;;11.95;7.1;;;;;;;8.52;86.09863;96125.81;;;;
2024/02/20 04:57:11;;;;;;;11.95;7.1;;;;;;;8.52;86.09863;96125.81;;;;
2024/02/20 04:58:11;;;;;;;11.95;7.1;;;;;;;8.52;86.09863;96125.81;;;;
2024/02/20 04:59:12;;;;;;;11.95;7.1;;;;;;;8.52;86.09863;96125.81;;;;
2024/02/20 05:00:12;;;;;;;11.95;7.1;;;;;;;8.52;86.09863;96125.81;;;;
2024/02/20 05:01:14;;;;;;;11.95;7.1;;;;;;;8.52;86.09863;96125.81;;;;
2024/02/20 05:02:16;;;;;;;11.95;7.1;;;;;;;8.52;86.09863;96125.81;;;;
2024/02/20 05:03:16;;;;;;;11.95;7.1;;;;;;;8.52;86.09863;96125.81;;;;
2024/02/20 05:04:17;;;;;;;11.95;7.1;;;;;;;8.52;86.09863;96125.81;;;;
2024/02/20 05:05:17;;;;;;;10.3;6.4;;;;;;;8.48;86.33594;96135.06;;;;
2024/02/20 05:06:18;;;;;;;10.3;6.4;;;;;;;8.48;86.33594;96135.06;;;;
2024/02/20 05:07:19;;;;;;;10.3;6.4;;;;;;;8.48;86.33594;96135.06;;;;
2024/02/20 05:08:19;;;;;;;10.3;6.4;;;;;;;8.48;86.33594;96135.06;;;;
2024/02/20 05:09:20;;;;;;;10.3;6.4;;;;;;;8.48;86.33594;96135.06;;;;
2024/02/20 05:10:22;;;;;;;10.3;6.4;;;;;;;8.48;86.33594;96135.06;;;;
2024/02/20 05:11:22;;;;;;;10.3;6.4;;;;;;;8.48;86.33594;96135.06;;;;
2024/02/20 05:12:23;;;;;;;10.3;6.4;;;;;;;8.48;86.33594;96135.06;;;;
2024/02/20 05:13:23;;;;;;;10.3;6.4;;;;;;;8.48;86.33594;96135.06;;;;
2024/02/20 05:14:24;;;;;;;10.3;6.4;;;;;;;8.48;86.33594;96135.06;;;;
2024/02/20 05:15:24;;;;;;;10.3;6.4;;;;;;;8.48;86.33594;96135.06;;;;
2024/02/20 05:16:25;;;;;;;9.75;6.6;;;;;;;8.51;85.9043;96139.58;;;;
2024/02/20 05:17:25;;;;;;;9.75;6.6;;;;;;;8.51;85.9043;96139.58;;;;
2024/02/20 05:18:25;;;;;;;9.75;6.6;;;;;;;8.51;85.9043;96139.58;;;;
2024/02/20 05:19:26;;;;;;;9.75;6.6;;;;;;;8.51;85.9043;96139.58;;;;
2024/02/20 05:20:26;;;;;;;9.75;6.6;;;;;;;8.51;85.9043;96139.58;;;;
2024/02/20 05:21:27;;;;;;;9.75;6.6;;;;;;;8.51;85.9043;96139.58;;;;
2024/02/20 05:22:27;;;;;;;9.75;6.6;;;;;;;8.51;85.9043;96139.58;;;;
2024/02/20 05:23:28;;;;;;;9.75;6.6;;;;;;;8.51;85.9043;96139.58;;;;
2024/02/20 05:24:28;;;;;;;9.75;6.6;;;;;;;8.51;85.9043;96139.58;;;;
2024/02/20 05:25:29;;;;;;;9.75;6.6;;;;;;;8.51;85.9043;96139.58;;;;
2024/02/20 05:26:29;;;;;;;9.75;6.6;;;;;;;8.51;85.9043;96139.58;;;;
2024/02/20 05:27:30;;;;;;;9.75;6.6;;;;;;;8.51;85.9043;96139.58;;;;
2024/02/20 05:28:31;;;;;;;9.75;6.6;;;;;;;8.51;85.9043;96139.58;;;;
2024/02/20 05:29:31;;;;;;;9.75;6.6;;;;;;;8.51;85.9043;96139.58;;;;
2024/02/20 05:30:32;;;;;;;9.75;6.6;;;;;;;8.51;85.9043;96139.58;;;;
2024/02/20 05:31:32;;;;;;;9.75;6.6;;;;;;;8.51;85.9043;96139.58;;;;
2024/02/20 05:32:33;;;;;;;9.75;6.6;;;;;;;8.51;85.9043;96139.58;;;;
2024/02/20 05:33:34;;;;;;;9.75;6.6;;;;;;;8.51;85.9043;96139.58;;;;
2024/02/20 05:34:34;;;;;;;9.75;6.6;;;;;;;8.51;85.9043;96139.58;;;;
2024/02/20 05:35:35;;;;;;;9.75;6.6;;;;;;;8.51;85.9043;96139.58;;;;
2024/02/20 05:36:35;;;;;;;9.75;6.6;;;;;;;8.51;85.9043;96139.58;;;;
2024/02/20 05:37:36;;;;;;;9.75;6.6;;;;;;;8.51;85.9043;96139.58;;;;
2024/02/20 05:38:36;;;;;;;9.75;6.6;;;;;;;8.51;85.9043;96139.58;;;;
2024/02/20 05:39:37;;;;;;;9.75;6.6;;;;;;;8.51;85.9043;96139.58;;;;
2024/02/20 05:40:37;;;;;;;9.75;6.6;;;;;;;8.51;85.9043;96139.58;;;;
2024/02/20 05:41:38;;;;;;;9.75;6.6;;;;;;;8.51;85.9043;96139.58;;;;
2024/02/20 05:42:38;;;;;;;9.75;6.6;;;;;;;8.51;85.9043;96139.58;;;;
2024/02/20 05:43:39;;;;;;;9.75;6.6;;;;;;;8.51;85.9043;96139.58;;;;
2024/02/20 05:44:39;;;;;;;9.75;6.6;;;;;;;8.51;85.9043;96139.58;;;;